Impacts METAR Board INFO
IDs:

KMDW - Chicago/Midway Intl, IL, US

Updated at: 2258 UTC 21 Nov 2017
Potential Impact None Slight Moderate High
Time21/10Z 21/11Z 21/12Z 21/13Z 21/14Z 21/15Z 21/16Z 21/17Z 21/18Z 21/19Z 21/20Z 21/21Z 21/22Z
VIS10 10 10 10 10 10 10 10 10 10 10 10 10
CIG180 -- 220 130 130 90 60 50 220 60 100 250 250
CoverOVCSCTBKNBKNBKNOVCOVCOVCOVCOVCOVCBKNBKN
FltCatVFRVFRVFRVFRVFRVFRVFRVFRVFRVFRVFRVFRVFR
WX-------------RA-RA----------
WDir220220210230240250270260280290310300310
WSpd12 11 10 13 12 12 12 10 13 12 12 17 13
WGst-- -- -- -- -- 21 -- -- 21 -- -- 22 --
Raw hourly METARs
KMDW 210953Z 22012KT 10SM BKN180 OVC220 07/00 A2968 RMK AO2 SLP054 T00670000
KMDW 211053Z 22011KT 10SM SCT220 06/00 A2969 RMK AO2 SLP058 T00610000
KMDW 211153Z 21010KT 10SM FEW180 BKN220 06/00 A2968 RMK AO2 SLP055 T00610000 10067 20056 50001
KMDW 211253Z 23013KT 10SM BKN130 BKN220 06/00 A2970 RMK AO2 SLP062 T00610000
KMDW 211353Z 24012KT 10SM BKN130 BKN200 07/01 A2973 RMK AO2 SLP071 T00670006
KMDW 211453Z 25012G21KT 10SM OVC090 07/01 A2975 RMK AO2 SLP079 T00670006 53023
KMDW 211553Z 27012KT 10SM -RA OVC060 06/02 A2981 RMK AO2 RAB16 SLP101 P0001 T00610022
KMDW 211653Z 26010KT 10SM -RA OVC050 05/02 A2982 RMK AO2 SLP102 P0003 T00500017
KMDW 211753Z 28013G21KT 10SM SCT065 OVC220 06/M03 A2982 RMK AO2 RAE08 SLP103 P0000 60004 T00561033 10072 20050 51022
KMDW 211853Z 29012KT 10SM BKN060 OVC075 04/M05 A2986 RMK AO2 SLP119 T00441050
KMDW 211953Z 31012KT 10SM FEW080 BKN100 OVC250 04/M07 A2990 RMK AO2 SLP131 T00391067
KMDW 212053Z 30017G22KT 10SM FEW080 SCT100 BKN250 04/M06 A2995 RMK AO2 SLP148 T00391056 53043
KMDW 212153Z 31013KT 10SM FEW045 FEW100 BKN250 02/M07 A3000 RMK AO2 SLP168 T00221067